Details for Austrian at LOWW




Go Back


Latest METAR
Local Time

LOWW 221050Z 32008KT 9999 FEW033 BKN120 16/08 Q1023 NOSIG
22/09/2018, 12:57:27

Description
Results
Austrian Logo
Number of Pilots based at LOWW
0 Pilots Based here
Number of Austrian Flights Departed from LOWW
9 Flights Departed
Number of Austrian Flights Arrived at LOWW
10 Flights Arrived
Number of Austrian Schedules Departing from LOWW
244 Schedules
Number of Austrian Schedules Arriving at LOWW
249 Schedules
Number of Austrian Schedules Departing from LOWW availible today
141 Schedules Today
Number of Austrian Schedules Arriving at LOWW availible today
154 Schedules Today
Average Landing Rate at LOWW
-220 fpm
Austrian Average Landing Rate at LOWW
-307 fpm
Total Fuel Purchased at LOWW by Austrian
25,999.92 kgs / 57,319.42 lbs

Pilots Based at LOWW


Pilot ID
Pilot Name
Pilot Rank
No. of Flights
No. of Flying Hours
There are no pilots assigned to this hub!   Will you be the first?
Content